Time;durP1;ratioP1;P1;durP2;ratioP2;P2;SDS_P1;SDS_P2;PMS_P1;PMS_P2;Temp;Humidity;BMP_temperature;BMP_pressure;BME280_temperature;BME280_humidity;BME280_pressure;Samples;Min_cycle;Max_cycle;Signal;HPM_P1;HPM_P2
2024/04/01 00:05:32;;;;;;;5.10;2.33;;;;;;;14.41;95.27;100468.81;31409127;28;20049;-75
2024/04/01 00:20:33;;;;;;;3.93;2.30;;;;;;;14.14;95.28;100482.84;31403838;28;20109;-76
2024/04/01 00:35:38;;;;;;;5.33;2.70;;;;;;;14.30;96.97;100471.09;31403402;28;20049;-77
2024/04/01 00:50:41;;;;;;;;;;;;;;;14.43;99.91;100471.88;31379726;28;20041;-76
2024/04/01 01:05:42;;;;;;;5.40;2.77;;;;;;;14.20;100.00;100488.53;31393234;28;19920;-75
2024/04/01 01:20:43;;;;;;;6.17;3.20;;;;;;;14.11;100.00;100523.91;31416950;28;20052;-76
2024/04/01 01:35:44;;;;;;;6.17;2.57;;;;;;;14.08;100.00;100527.50;31399727;28;20064;-76
2024/04/01 01:50:45;;;;;;;7.23;3.63;;;;;;;14.16;100.00;100535.06;31410849;28;20056;-75
2024/04/01 02:05:50;;;;;;;6.60;3.20;;;;;;;14.17;100.00;100533.09;31427709;28;20131;-75
2024/04/01 02:20:51;;;;;;;5.47;3.27;;;;;;;14.08;100.00;100527.50;31441023;28;20490;-75
2024/04/01 02:35:52;;;;;;;8.77;3.73;;;;;;;14.17;100.00;100522.19;31404221;28;20059;-76
2024/04/01 02:50:53;;;;;;;9.30;4.03;;;;;;;14.11;100.00;100537.56;31397312;28;20053;-75
2024/04/01 03:05:54;;;;;;;7.83;3.90;;;;;;;13.67;100.00;100509.88;31404222;28;20053;-76
2024/04/01 03:20:56;;;;;;;6.97;3.37;;;;;;;13.45;100.00;100487.06;31428426;28;20052;-76
2024/04/01 03:35:57;;;;;;;5.73;3.80;;;;;;;13.42;100.00;100477.00;31392428;28;20048;-75
2024/04/01 03:50:58;;;;;;;10.30;6.00;;;;;;;13.44;100.00;100469.94;31404420;28;20056;-77
2024/04/01 04:05:59;;;;;;;9.97;6.37;;;;;;;13.63;97.91;100476.44;31405467;28;20469;-75
2024/04/01 04:21:00;;;;;;;6.50;3.30;;;;;;;13.78;92.46;100455.00;31404389;28;20494;-76
2024/04/01 04:36:03;;;;;;;6.17;4.33;;;;;;;14.49;81.55;100466.66;31390334;28;20433;-76
2024/04/01 04:51:04;;;;;;;10.67;7.57;;;;;;;14.92;77.14;100449.69;31387666;28;20072;-78
2024/04/01 05:06:05;;;;;;;8.47;4.90;;;;;;;16.12;70.41;100465.94;31407629;28;20053;-77
2024/04/01 05:21:06;;;;;;;3.40;2.47;;;;;;;16.69;66.47;100443.44;31430071;28;20367;-77
2024/04/01 05:36:07;;;;;;;3.47;1.80;;;;;;;16.83;62.78;100417.41;31436675;28;20497;-79
2024/04/01 05:51:09;;;;;;;5.00;1.50;;;;;;;17.05;60.07;100392.63;31411959;28;20057;-77
2024/04/01 06:06:10;;;;;;;6.10;1.50;;;;;;;18.77;56.11;100406.50;31424262;28;20060;-78
2024/04/01 06:21:11;;;;;;;1.43;1.17;;;;;;;19.05;52.88;100424.34;31403151;28;20053;-78
2024/04/01 06:36:12;;;;;;;2.20;1.50;;;;;;;19.67;50.87;100398.81;31442661;28;20099;-77
2024/04/01 06:51:13;;;;;;;4.32;1.30;;;;;;;20.80;46.55;100401.31;31428221;28;20056;-77
2024/04/01 07:06:14;;;;;;;2.42;1.23;;;;;;;21.33;44.88;100429.38;31423322;28;20520;-78
2024/04/01 07:21:15;;;;;;;1.67;1.23;;;;;;;22.02;42.98;100382.63;31394576;28;20064;-78
2024/04/01 07:36:16;;;;;;;1.88;1.00;;;;;;;22.94;41.79;100373.13;31413462;28;20409;-77
2024/04/01 07:51:17;;;;;;;4.25;1.50;;;;;;;23.55;39.44;100361.53;31381084;28;20059;-78
2024/04/01 08:06:18;;;;;;;4.20;1.33;;;;;;;25.07;37.42;100363.56;31431369;28;20052;-79
2024/04/01 08:21:19;;;;;;;4.65;1.30;;;;;;;25.92;35.17;100334.72;31454061;28;20079;-81
2024/04/01 08:36:24;;;;;;;2.58;1.30;;;;;;;26.58;34.91;100332.56;31392196;28;20067;-81
2024/04/01 08:51:26;;;;;;;5.93;1.27;;;;;;;26.81;34.71;100311.50;31406655;28;20111;-75
2024/04/01 09:06:30;;;;;;;4.40;1.30;;;;;;;27.22;34.03;100310.47;31444580;28;20102;-78
2024/04/01 09:21:31;;;;;;;3.33;1.30;;;;;;;27.65;34.21;100290.06;31401412;28;20048;-79
2024/04/01 09:36:32;;;;;;;4.43;1.60;;;;;;;28.42;33.90;100273.19;31421490;28;20426;-74
2024/04/01 09:51:34;;;;;;;6.07;1.60;;;;;;;28.74;34.39;100267.44;31410251;28;20064;-80
2024/04/01 10:06:53;;;;;;;3.43;1.50;;;;;;;28.01;35.87;100271.66;31441780;28;20427;-74
2024/04/01 10:22:19;;;;;;;4.70;1.90;;;;;;;27.29;36.29;100282.00;31408492;28;20057;-80
2024/04/01 10:37:39;;;;;;;9.88;2.60;;;;;;;27.40;36.82;100256.72;31427078;28;20057;-78
2024/04/01 10:52:44;;;;;;;15.48;3.10;;;;;;;26.73;37.87;100265.28;31387659;28;20063;-75
2024/04/01 11:08:12;;;;;;;13.23;2.17;;;;;;;27.04;38.68;100261.84;31390691;28;20497;-74
2024/04/01 11:23:31;;;;;;;7.85;2.67;;;;;;;28.22;37.46;100224.34;31405599;28;20041;-83
2024/04/01 11:39:13;;;;;;;10.73;1.88;;;;;;;28.11;37.90;100225.28;31456681;28;20424;-81
2024/04/01 11:54:24;;;;;;;7.18;2.33;;;;;;;27.60;38.79;100187.75;31382798;28;20126;-75
2024/04/01 12:09:25;;;;;;;4.28;1.90;;;;;;;27.45;39.18;100193.78;31359367;28;20047;-77
2024/04/01 12:24:26;;;;;;;5.85;1.90;;;;;;;26.81;39.93;100171.53;31433414;28;20401;-77
2024/04/01 12:39:29;;;;;;;;;;;;;;;26.97;39.63;100150.28;31466846;28;20083;-75
2024/04/01 12:54:59;;;;;;;7.88;2.45;;;;;;;26.99;40.60;100128.22;31407064;28;20396;-77
2024/04/01 13:10:04;;;;;;;9.63;2.58;;;;;;;26.96;41.12;100118.88;31460377;28;20098;-76
2024/04/01 13:25:33;;;;;;;11.57;2.30;;;;;;;27.45;40.73;100110.16;31416969;28;20049;-75
2024/04/01 13:40:49;;;;;;;10.00;2.00;;;;;;;26.81;42.09;100105.44;31467509;28;20052;-77
2024/04/01 13:56:15;;;;;;;12.65;2.90;;;;;;;26.70;42.93;100111.16;31422195;28;20057;-75
2024/04/01 14:11:23;;;;;;;12.50;2.80;;;;;;;25.88;43.70;100095.09;31414877;28;20422;-77
2024/04/01 14:26:24;;;;;;;10.85;2.92;;;;;;;25.29;44.42;100093.19;31438316;28;20516;-86
2024/04/01 14:41:30;;;;;;;6.55;2.08;;;;;;;25.19;44.67;100098.38;31416215;28;20052;-77
2024/04/01 14:56:31;;;;;;;11.48;2.28;;;;;;;24.58;45.94;100098.81;31412476;28;20056;-81
2024/04/01 15:11:45;;;;;;;15.13;2.88;;;;;;;24.34;46.71;100094.69;31453969;28;20056;-79
2024/04/01 15:26:46;;;;;;;12.75;2.55;;;;;;;23.98;47.17;100091.09;31408391;28;20060;-84
2024/04/01 15:41:49;;;;;;;9.93;2.05;;;;;;;24.53;46.38;100083.00;31396969;28;20060;-80
2024/04/01 15:56:51;;;;;;;9.60;3.10;;;;;;;23.48;48.33;100071.84;31424442;28;20129;-79
2024/04/01 16:11:53;;;;;;;10.65;2.20;;;;;;;22.82;48.16;100090.06;31429257;28;20041;-79
2024/04/01 16:27:01;;;;;;;11.35;2.25;;;;;;;22.62;48.20;100071.66;31361544;28;20131;-78
2024/04/01 16:42:03;;;;;;;8.38;2.72;;;;;;;22.16;49.50;100090.69;31472425;28;20126;-79
2024/04/01 16:57:05;;;;;;;18.48;6.30;;;;;;;21.73;52.58;100088.00;31431120;28;20061;-78
2024/04/01 17:12:07;;;;;;;12.05;3.10;;;;;;;21.83;53.72;100094.81;31391463;28;20041;-79
2024/04/01 17:27:09;;;;;;;3.40;2.03;;;;;;;21.47;55.75;100103.94;31402012;28;20064;-76
2024/04/01 17:42:10;;;;;;;9.05;2.13;;;;;;;21.16;55.71;100091.66;31431195;28;20078;-79
2024/04/01 17:57:12;;;;;;;6.22;2.25;;;;;;;20.84;57.77;100098.41;31444102;28;20053;-79
2024/04/01 18:12:16;;;;;;;8.00;2.80;;;;;;;20.33;61.46;100086.13;31439599;28;20048;-79
2024/04/01 18:27:18;;;;;;;7.03;2.17;;;;;;;19.88;66.88;100088.38;31475032;28;20064;-80
2024/04/01 18:42:23;;;;;;;11.05;3.08;;;;;;;19.30;72.09;100079.09;31451443;28;20052;-79
2024/04/01 18:57:25;;;;;;;10.80;2.78;;;;;;;18.79;82.56;100076.03;31380328;28;20052;-80
2024/04/01 19:12:26;;;;;;;9.20;2.97;;;;;;;18.70;84.96;100063.13;31415501;28;20094;-78
2024/04/01 19:27:30;;;;;;;5.93;2.77;;;;;;;18.78;86.20;100082.75;31463269;28;20053;-79
2024/04/01 19:42:31;;;;;;;4.00;2.87;;;;;;;18.46;89.96;100062.44;31454413;28;20057;-79
2024/04/01 19:57:35;;;;;;;10.63;2.50;;;;;;;18.18;95.65;100054.47;31425572;28;20052;-77
2024/04/01 20:12:38;;;;;;;6.17;2.27;;;;;;;17.98;100.00;100052.31;31407441;28;20056;-78
2024/04/01 20:27:40;;;;;;;7.40;3.23;;;;;;;17.79;100.00;100036.47;31441597;28;20056;-78
2024/04/01 20:42:41;;;;;;;8.34;2.26;;;;;;;17.52;100.00;100031.88;31364176;28;20482;-79
2024/04/01 20:57:46;;;;;;;6.03;2.83;;;;;;;17.31;100.00;100023.47;31452550;28;20049;-81
2024/04/01 21:12:47;;;;;;;;;;;;;;;17.05;100.00;100006.69;31417070;28;20048;-80
2024/04/01 21:27:48;;;;;;;5.57;2.50;;;;;;;16.52;100.00;99995.47;31430768;28;19920;-79
2024/04/01 21:42:49;;;;;;;12.60;3.67;;;;;;;16.26;100.00;99991.56;31487725;28;20052;-79
2024/04/01 21:57:50;;;;;;;6.30;3.20;;;;;;;16.07;100.00;99990.06;31483475;28;20064;-77
2024/04/01 22:12:51;;;;;;;10.63;2.93;;;;;;;15.78;100.00;99980.38;31433985;28;20110;-79
2024/04/01 22:27:52;;;;;;;9.47;2.80;;;;;;;15.56;100.00;99983.25;31445289;28;20053;-79
2024/04/01 22:42:53;;;;;;;11.15;3.72;;;;;;;15.39;100.00;99975.75;31403189;28;20103;-78
2024/04/01 22:57:54;;;;;;;8.83;3.17;;;;;;;15.20;100.00;99964.78;31428377;28;20056;-77
2024/04/01 23:12:55;;;;;;;7.73;2.80;;;;;;;15.09;100.00;99944.56;31445984;28;20051;-79
2024/04/01 23:27:56;;;;;;;6.50;2.63;;;;;;;14.94;100.00;99941.63;31454928;28;20486;-76
2024/04/01 23:42:57;;;;;;;10.70;3.70;;;;;;;14.84;100.00;99938.13;31442408;28;20056;-78
2024/04/01 23:57:58;;;;;;;9.67;3.60;;;;;;;15.02;100.00;99929.19;31467671;28;20052;-80
